sensor_id;sensor_type;location;lat;lon;timestamp;pressure;altitude;pressure_sealevel;temperature;humidity
45525;BME280;31437;58.350;13.828;2023-02-04T03:41:59;102199.75;;;-7.60;100.00
45525;BME280;31437;58.350;13.828;2023-02-04T03:44:24;102210.75;;;-7.61;100.00
45525;BME280;31437;58.350;13.828;2023-02-04T03:46:52;102205.22;;;-7.68;100.00
45525;BME280;31437;58.350;13.828;2023-02-04T03:49:22;102210.19;;;-7.71;100.00
45525;BME280;31437;58.350;13.828;2023-02-04T03:51:47;102221.63;;;-7.80;100.00
45525;BME280;31437;58.350;13.828;2023-02-04T03:54:13;102219.03;;;-7.81;100.00
45525;BME280;31437;58.350;13.828;2023-02-04T03:56:38;102227.47;;;-7.82;100.00
45525;BME280;31437;58.350;13.828;2023-02-04T03:59:03;102230.19;;;-7.79;100.00
45525;BME280;31437;58.350;13.828;2023-02-04T04:01:28;102246.34;;;-7.79;100.00
45525;BME280;31437;58.350;13.828;2023-02-04T04:03:54;102240.28;;;-7.81;100.00
45525;BME280;31437;58.350;13.828;2023-02-04T04:06:19;102249.66;;;-7.80;100.00
45525;BME280;31437;58.350;13.828;2023-02-04T04:08:44;102246.88;;;-7.84;100.00
45525;BME280;31437;58.350;13.828;2023-02-04T04:11:10;102245.16;;;-7.85;100.00
45525;BME280;31437;58.350;13.828;2023-02-04T04:13:36;102245.06;;;-7.87;100.00
45525;BME280;31437;58.350;13.828;2023-02-04T04:16:01;102241.53;;;-7.89;100.00
45525;BME280;31437;58.350;13.828;2023-02-04T04:18:27;102249.81;;;-7.93;100.00
45525;BME280;31437;58.350;13.828;2023-02-04T04:20:53;102255.47;;;-7.98;100.00
45525;BME280;31437;58.350;13.828;2023-02-04T04:23:18;102251.34;;;-7.96;100.00
45525;BME280;31437;58.350;13.828;2023-02-04T04:25:43;102254.03;;;-7.93;100.00
45525;BME280;31437;58.350;13.828;2023-02-04T04:28:10;102252.09;;;-7.97;100.00
45525;BME280;31437;58.350;13.828;2023-02-04T04:30:35;102257.31;;;-7.96;100.00
45525;BME280;31437;58.350;13.828;2023-02-04T04:33:00;102265.97;;;-7.92;100.00
45525;BME280;31437;58.350;13.828;2023-02-04T04:35:25;102279.75;;;-7.89;100.00
45525;BME280;31437;58.350;13.828;2023-02-04T04:37:51;102272.91;;;-7.90;100.00
45525;BME280;31437;58.350;13.828;2023-02-04T04:40:16;102279.69;;;-7.90;100.00
45525;BME280;31437;58.350;13.828;2023-02-04T04:42:44;102282.41;;;-7.87;100.00
45525;BME280;31437;58.350;13.828;2023-02-04T04:45:10;102289.16;;;-7.88;100.00
45525;BME280;31437;58.350;13.828;2023-02-04T04:47:35;102293.63;;;-7.84;100.00
45525;BME280;31437;58.350;13.828;2023-02-04T04:50:00;102302.69;;;-7.89;100.00
45525;BME280;31437;58.350;13.828;2023-02-04T04:52:26;102298.28;;;-7.91;100.00
45525;BME280;31437;58.350;13.828;2023-02-04T04:54:51;102301.47;;;-7.95;100.00
45525;BME280;31437;58.350;13.828;2023-02-04T04:57:16;102300.44;;;-7.99;100.00
45525;BME280;31437;58.350;13.828;2023-02-04T04:59:42;102312.03;;;-8.04;100.00
45525;BME280;31437;58.350;13.828;2023-02-04T05:02:07;102320.38;;;-8.07;100.00
45525;BME280;31437;58.350;13.828;2023-02-04T05:04:32;102328.66;;;-8.11;100.00
45525;BME280;31437;58.350;13.828;2023-02-04T05:06:57;102339.63;;;-8.12;100.00
45525;BME280;31437;58.350;13.828;2023-02-04T05:09:23;102337.88;;;-8.13;100.00
45525;BME280;31437;58.350;13.828;2023-02-04T05:11:48;102344.81;;;-8.10;100.00
45525;BME280;31437;58.350;13.828;2023-02-04T05:14:13;102351.66;;;-8.09;100.00
45525;BME280;31437;58.350;13.828;2023-02-04T05:16:38;102348.16;;;-8.11;100.00
45525;BME280;31437;58.350;13.828;2023-02-04T05:19:04;102354.13;;;-8.11;100.00
45525;BME280;31437;58.350;13.828;2023-02-04T05:21:29;102356.41;;;-8.15;100.00
45525;BME280;31437;58.350;13.828;2023-02-04T05:23:54;102359.84;;;-8.15;100.00
45525;BME280;31437;58.350;13.828;2023-02-04T05:26:20;102356.25;;;-8.18;100.00
45525;BME280;31437;58.350;13.828;2023-02-04T05:28:45;102346.34;;;-8.29;100.00
45525;BME280;31437;58.350;13.828;2023-02-04T05:31:11;102353.63;;;-8.35;100.00
45525;BME280;31437;58.350;13.828;2023-02-04T05:33:36;102360.97;;;-8.41;100.00
45525;BME280;31437;58.350;13.828;2023-02-04T05:36:01;102355.75;;;-8.57;100.00
45525;BME280;31437;58.350;13.828;2023-02-04T05:38:26;102358.00;;;-8.62;100.00
45525;BME280;31437;58.350;13.828;2023-02-04T05:40:52;102358.47;;;-8.69;100.00
45525;BME280;31437;58.350;13.828;2023-02-04T05:43:17;102364.00;;;-8.76;100.00
45525;BME280;31437;58.350;13.828;2023-02-04T05:45:42;102362.22;;;-8.77;100.00
45525;BME280;31437;58.350;13.828;2023-02-04T05:48:08;102366.88;;;-8.85;100.00
45525;BME280;31437;58.350;13.828;2023-02-04T05:50:33;102367.03;;;-8.97;100.00
45525;BME280;31437;58.350;13.828;2023-02-04T05:52:58;102364.13;;;-9.03;100.00
45525;BME280;31437;58.350;13.828;2023-02-04T05:55:23;102363.13;;;-9.05;100.00
45525;BME280;31437;58.350;13.828;2023-02-04T05:57:49;102365.38;;;-9.09;100.00
45525;BME280;31437;58.350;13.828;2023-02-04T06:00:14;102371.78;;;-9.16;100.00
45525;BME280;31437;58.350;13.828;2023-02-04T06:02:39;102374.56;;;-9.26;100.00
45525;BME280;31437;58.350;13.828;2023-02-04T06:05:05;102375.44;;;-9.39;100.00
45525;BME280;31437;58.350;13.828;2023-02-04T06:07:30;102382.31;;;-9.51;100.00
45525;BME280;31437;58.350;13.828;2023-02-04T06:09:55;102386.84;;;-9.61;100.00
45525;BME280;31437;58.350;13.828;2023-02-04T06:12:21;102392.41;;;-9.66;100.00
45525;BME280;31437;58.350;13.828;2023-02-04T06:14:46;102401.31;;;-9.73;100.00
45525;BME280;31437;58.350;13.828;2023-02-04T06:17:11;102399.53;;;-9.74;100.00
45525;BME280;31437;58.350;13.828;2023-02-04T06:19:36;102397.28;;;-9.83;100.00
45525;BME280;31437;58.350;13.828;2023-02-04T06:22:02;102400.84;;;-9.94;100.00
45525;BME280;31437;58.350;13.828;2023-02-04T06:24:27;102403.75;;;-10.01;100.00
45525;BME280;31437;58.350;13.828;2023-02-04T06:26:52;102409.41;;;-10.05;100.00
45525;BME280;31437;58.350;13.828;2023-02-04T06:29:17;102415.84;;;-10.10;100.00
45525;BME280;31437;58.350;13.828;2023-02-04T06:31:43;102425.13;;;-10.11;100.00
45525;BME280;31437;58.350;13.828;2023-02-04T06:34:08;102429.31;;;-10.11;100.00
45525;BME280;31437;58.350;13.828;2023-02-04T06:36:33;102437.41;;;-10.17;100.00
45525;BME280;31437;58.350;13.828;2023-02-04T06:38:59;102436.13;;;-10.23;100.00
45525;BME280;31437;58.350;13.828;2023-02-04T06:41:24;102439.06;;;-10.31;100.00
45525;BME280;31437;58.350;13.828;2023-02-04T06:43:49;102436.81;;;-10.39;100.00
45525;BME280;31437;58.350;13.828;2023-02-04T06:46:14;102441.88;;;-10.39;100.00
45525;BME280;31437;58.350;13.828;2023-02-04T06:48:40;102442.97;;;-10.36;100.00
45525;BME280;31437;58.350;13.828;2023-02-04T06:51:05;102450.78;;;-10.33;100.00
45525;BME280;31437;58.350;13.828;2023-02-04T06:53:31;102464.56;;;-10.29;100.00
45525;BME280;31437;58.350;13.828;2023-02-04T06:55:56;102460.47;;;-10.27;100.00
45525;BME280;31437;58.350;13.828;2023-02-04T06:58:21;102469.91;;;-10.24;100.00
45525;BME280;31437;58.350;13.828;2023-02-04T07:00:47;102468.00;;;-10.28;100.00
45525;BME280;31437;58.350;13.828;2023-02-04T07:03:12;102465.53;;;-10.27;100.00
45525;BME280;31437;58.350;13.828;2023-02-04T07:05:38;102472.94;;;-10.30;100.00
45525;BME280;31437;58.350;13.828;2023-02-04T07:08:03;102478.03;;;-10.30;100.00
45525;BME280;31437;58.350;13.828;2023-02-04T07:10:29;102472.94;;;-10.30;100.00
45525;BME280;31437;58.350;13.828;2023-02-04T07:12:54;102468.75;;;-10.30;100.00
45525;BME280;31437;58.350;13.828;2023-02-04T07:15:19;102475.84;;;-10.24;100.00
45525;BME280;31437;58.350;13.828;2023-02-04T07:17:44;102479.88;;;-10.27;100.00
45525;BME280;31437;58.350;13.828;2023-02-04T07:20:10;102492.75;;;-10.24;100.00
45525;BME280;31437;58.350;13.828;2023-02-04T07:22:36;102492.13;;;-10.09;100.00
45525;BME280;31437;58.350;13.828;2023-02-04T07:25:01;102505.16;;;-9.91;100.00
45525;BME280;31437;58.350;13.828;2023-02-04T07:27:28;102509.56;;;-9.75;100.00
45525;BME280;31437;58.350;13.828;2023-02-04T07:29:54;102504.59;;;-9.60;100.00
45525;BME280;31437;58.350;13.828;2023-02-04T07:32:19;102511.94;;;-9.51;100.00
45525;BME280;31437;58.350;13.828;2023-02-04T07:34:45;102510.97;;;-9.40;100.00
45525;BME280;31437;58.350;13.828;2023-02-04T07:37:12;102510.56;;;-9.20;100.00
45525;BME280;31437;58.350;13.828;2023-02-04T07:39:37;102520.03;;;-9.04;100.00
45525;BME280;31437;58.350;13.828;2023-02-04T07:42:02;102523.31;;;-8.92;100.00
45525;BME280;31437;58.350;13.828;2023-02-04T07:44:28;102525.63;;;-8.68;100.00
45525;BME280;31437;58.350;13.828;2023-02-04T07:46:53;102536.69;;;-8.25;100.00
45525;BME280;31437;58.350;13.828;2023-02-04T07:49:19;102547.84;;;-7.80;100.00
45525;BME280;31437;58.350;13.828;2023-02-04T07:51:44;102544.03;;;-7.27;100.00
45525;BME280;31437;58.350;13.828;2023-02-04T07:54:09;102550.22;;;-6.92;100.00
45525;BME280;31437;58.350;13.828;2023-02-04T07:56:34;102548.75;;;-6.72;100.00
45525;BME280;31437;58.350;13.828;2023-02-04T07:59:00;102544.16;;;-6.47;100.00
45525;BME280;31437;58.350;13.828;2023-02-04T08:01:25;102536.03;;;-6.23;100.00
45525;BME280;31437;58.350;13.828;2023-02-04T08:03:50;102532.88;;;-6.01;100.00
45525;BME280;31437;58.350;13.828;2023-02-04T08:06:16;102526.66;;;-5.88;100.00
45525;BME280;31437;58.350;13.828;2023-02-04T08:08:41;102525.09;;;-5.68;100.00
45525;BME280;31437;58.350;13.828;2023-02-04T08:11:06;102529.59;;;-5.46;100.00
45525;BME280;31437;58.350;13.828;2023-02-04T08:13:32;102524.84;;;-5.21;100.00
45525;BME280;31437;58.350;13.828;2023-02-04T08:15:57;102528.56;;;-4.96;100.00
45525;BME280;31437;58.350;13.828;2023-02-04T08:18:22;102519.75;;;-4.84;100.00
45525;BME280;31437;58.350;13.828;2023-02-04T08:20:49;102515.28;;;-4.70;100.00
45525;BME280;31437;58.350;13.828;2023-02-04T08:23:14;102510.97;;;-4.51;100.00
45525;BME280;31437;58.350;13.828;2023-02-04T08:25:39;102511.97;;;-4.28;100.00
45525;BME280;31437;58.350;13.828;2023-02-04T08:28:05;102508.38;;;-4.13;100.00
45525;BME280;31437;58.350;13.828;2023-02-04T08:30:30;102496.19;;;-3.97;100.00
45525;BME280;31437;58.350;13.828;2023-02-04T08:32:55;102499.19;;;-3.67;100.00
45525;BME280;31437;58.350;13.828;2023-02-04T08:35:20;102488.44;;;-3.36;100.00
45525;BME280;31437;58.350;13.828;2023-02-04T08:37:46;102483.66;;;-3.06;100.00
45525;BME280;31437;58.350;13.828;2023-02-04T08:40:11;102482.13;;;-2.77;100.00
45525;BME280;31437;58.350;13.828;2023-02-04T08:42:36;102472.28;;;-2.66;100.00
45525;BME280;31437;58.350;13.828;2023-02-04T08:45:02;102470.03;;;-2.57;100.00
45525;BME280;31437;58.350;13.828;2023-02-04T08:47:28;102455.53;;;-2.55;100.00
45525;BME280;31437;58.350;13.828;2023-02-04T08:49:53;102452.69;;;-2.62;100.00
45525;BME280;31437;58.350;13.828;2023-02-04T08:52:18;102444.06;;;-2.64;100.00
45525;BME280;31437;58.350;13.828;2023-02-04T08:54:44;102440.50;;;-2.68;100.00
45525;BME280;31437;58.350;13.828;2023-02-04T08:57:09;102443.03;;;-2.69;100.00
45525;BME280;31437;58.350;13.828;2023-02-04T08:59:34;102445.91;;;-2.84;100.00
45525;BME280;31437;58.350;13.828;2023-02-04T09:01:59;102438.53;;;-2.75;100.00
45525;BME280;31437;58.350;13.828;2023-02-04T09:04:28;102440.34;;;-2.72;100.00
45525;BME280;31437;58.350;13.828;2023-02-04T09:06:53;102448.88;;;-2.73;100.00
45525;BME280;31437;58.350;13.828;2023-02-04T09:09:19;102439.69;;;-2.67;100.00
45525;BME280;31437;58.350;13.828;2023-02-04T09:11:44;102442.41;;;-2.62;100.00
45525;BME280;31437;58.350;13.828;2023-02-04T09:14:09;102439.50;;;-2.71;100.00
45525;BME280;31437;58.350;13.828;2023-02-04T09:16:35;102438.44;;;-2.78;100.00
45525;BME280;31437;58.350;13.828;2023-02-04T09:19:02;102443.34;;;-2.84;100.00
45525;BME280;31437;58.350;13.828;2023-02-04T09:21:27;102441.13;;;-2.98;100.00
45525;BME280;31437;58.350;13.828;2023-02-04T09:23:53;102446.53;;;-3.14;100.00
45525;BME280;31437;58.350;13.828;2023-02-04T09:26:21;102449.19;;;-3.33;100.00
45525;BME280;31437;58.350;13.828;2023-02-04T09:28:47;102464.13;;;-3.46;100.00
45525;BME280;31437;58.350;13.828;2023-02-04T09:31:14;102467.69;;;-3.63;100.00
45525;BME280;31437;58.350;13.828;2023-02-04T09:33:40;102482.72;;;-3.72;100.00
45525;BME280;31437;58.350;13.828;2023-02-04T09:36:06;102499.06;;;-3.91;100.00
45525;BME280;31437;58.350;13.828;2023-02-04T09:38:35;102512.00;;;-3.88;100.00
45525;BME280;31437;58.350;13.828;2023-02-04T09:41:01;102522.88;;;-3.94;100.00
45525;BME280;31437;58.350;13.828;2023-02-04T09:43:32;102535.44;;;-4.00;100.00
45525;BME280;31437;58.350;13.828;2023-02-04T09:45:59;102538.00;;;-4.00;100.00
45525;BME280;31437;58.350;13.828;2023-02-04T09:48:24;102542.06;;;-4.05;100.00
45525;BME280;31437;58.350;13.828;2023-02-04T09:50:50;102546.03;;;-4.12;100.00
45525;BME280;31437;58.350;13.828;2023-02-04T09:53:18;102552.97;;;-4.09;100.00
45525;BME280;31437;58.350;13.828;2023-02-04T09:55:45;102554.00;;;-4.05;100.00
45525;BME280;31437;58.350;13.828;2023-02-04T09:58:19;102556.31;;;-4.12;100.00
45525;BME280;31437;58.350;13.828;2023-02-04T10:00:45;102557.16;;;-4.11;100.00
45525;BME280;31437;58.350;13.828;2023-02-04T10:03:15;102564.59;;;-4.17;100.00
45525;BME280;31437;58.350;13.828;2023-02-04T10:05:41;102565.66;;;-4.31;100.00
45525;BME280;31437;58.350;13.828;2023-02-04T10:08:08;102575.91;;;-4.31;100.00
45525;BME280;31437;58.350;13.828;2023-02-04T10:10:35;102578.53;;;-4.30;100.00
45525;BME280;31437;58.350;13.828;2023-02-04T10:13:01;102587.41;;;-4.23;100.00
45525;BME280;31437;58.350;13.828;2023-02-04T10:15:26;102596.41;;;-4.12;100.00
45525;BME280;31437;58.350;13.828;2023-02-04T10:17:53;102595.06;;;-4.04;100.00
45525;BME280;31437;58.350;13.828;2023-02-04T10:20:21;102595.47;;;-3.95;100.00
45525;BME280;31437;58.350;13.828;2023-02-04T10:22:50;102594.00;;;-3.90;100.00
45525;BME280;31437;58.350;13.828;2023-02-04T10:25:22;102598.25;;;-3.90;100.00
45525;BME280;31437;58.350;13.828;2023-02-04T10:27:48;102595.13;;;-3.83;100.00
45525;BME280;31437;58.350;13.828;2023-02-04T10:30:17;102595.94;;;-3.84;100.00
45525;BME280;31437;58.350;13.828;2023-02-04T10:32:42;102593.59;;;-3.79;100.00
45525;BME280;31437;58.350;13.828;2023-02-04T10:35:11;102591.28;;;-3.73;100.00
45525;BME280;31437;58.350;13.828;2023-02-04T10:50:33;102586.19;;;-3.31;100.00
45525;BME280;31437;58.350;13.828;2023-02-04T10:55:34;102585.06;;;-3.17;100.00
45525;BME280;31437;58.350;13.828;2023-02-04T10:57:59;102580.16;;;-3.11;100.00
45525;BME280;31437;58.350;13.828;2023-02-04T11:00:27;102575.19;;;-3.06;100.00
45525;BME280;31437;58.350;13.828;2023-02-04T11:03:01;102580.41;;;-3.05;100.00
45525;BME280;31437;58.350;13.828;2023-02-04T11:05:29;102580.56;;;-3.00;100.00
45525;BME280;31437;58.350;13.828;2023-02-04T11:07:56;102575.38;;;-3.02;100.00
45525;BME280;31437;58.350;13.828;2023-02-04T11:10:29;102581.41;;;-3.01;100.00
45525;BME280;31437;58.350;13.828;2023-02-04T11:15:37;102572.88;;;-3.00;100.00
45525;BME280;31437;58.350;13.828;2023-02-04T11:18:03;102578.06;;;-2.99;100.00
45525;BME280;31437;58.350;13.828;2023-02-04T11:20:30;102575.50;;;-2.99;100.00
45525;BME280;31437;58.350;13.828;2023-02-04T11:22:55;102575.16;;;-3.08;100.00
45525;BME280;31437;58.350;13.828;2023-02-04T11:25:39;102579.09;;;-3.16;100.00
45525;BME280;31437;58.350;13.828;2023-02-04T11:29:06;102580.84;;;-3.15;100.00
45525;BME280;31437;58.350;13.828;2023-02-04T11:31:00;102574.06;;;-3.13;100.00
45525;BME280;31437;58.350;13.828;2023-02-04T11:33:32;102573.25;;;-3.12;100.00
45525;BME280;31437;58.350;13.828;2023-02-04T11:36:02;102573.31;;;-3.10;100.00
45525;BME280;31437;58.350;13.828;2023-02-04T11:38:29;102577.63;;;-3.09;100.00
45525;BME280;31437;58.350;13.828;2023-02-04T11:40:56;102574.94;;;-3.12;100.00
45525;BME280;31437;58.350;13.828;2023-02-04T11:43:21;102569.03;;;-3.11;100.00
45525;BME280;31437;58.350;13.828;2023-02-04T11:45:47;102566.38;;;-3.13;100.00
45525;BME280;31437;58.350;13.828;2023-02-04T11:48:16;102579.16;;;-3.14;100.00
45525;BME280;31437;58.350;13.828;2023-02-04T11:50:42;102573.25;;;-3.12;100.00
45525;BME280;31437;58.350;13.828;2023-02-04T11:55:53;102583.28;;;-3.18;100.00
45525;BME280;31437;58.350;13.828;2023-02-04T11:58:19;102585.69;;;-3.23;100.00
45525;BME280;31437;58.350;13.828;2023-02-04T12:00:44;102590.81;;;-3.23;100.00
45525;BME280;31437;58.350;13.828;2023-02-04T12:05:55;102587.41;;;-3.22;100.00
45525;BME280;31437;58.350;13.828;2023-02-04T12:08:35;102601.25;;;-3.18;100.00
45525;BME280;31437;58.350;13.828;2023-02-04T12:13:27;102597.94;;;-3.15;100.00
45525;BME280;31437;58.350;13.828;2023-02-04T12:16:00;102598.94;;;-3.12;100.00
45525;BME280;31437;58.350;13.828;2023-02-04T12:18:26;102604.22;;;-3.09;100.00
45525;BME280;31437;58.350;13.828;2023-02-04T12:20:52;102604.22;;;-3.09;100.00
45525;BME280;31437;58.350;13.828;2023-02-04T12:23:17;102600.75;;;-3.09;100.00
45525;BME280;31437;58.350;13.828;2023-02-04T12:25:42;102611.09;;;-3.08;100.00
45525;BME280;31437;58.350;13.828;2023-02-04T12:28:09;102618.84;;;-3.06;100.00
45525;BME280;31437;58.350;13.828;2023-02-04T12:30:34;102611.09;;;-3.08;100.00
45525;BME280;31437;58.350;13.828;2023-02-04T12:33:00;102617.94;;;-3.08;100.00
45525;BME280;31437;58.350;13.828;2023-02-04T12:35:27;102613.78;;;-3.05;100.00
45525;BME280;31437;58.350;13.828;2023-02-04T12:37:52;102620.66;;;-3.04;100.00
45525;BME280;31437;58.350;13.828;2023-02-04T12:40:18;102616.41;;;-3.03;100.00
45525;BME280;31437;58.350;13.828;2023-02-04T12:42:44;102617.22;;;-3.04;100.00
45525;BME280;31437;58.350;13.828;2023-02-04T12:45:10;102613.78;;;-3.05;100.00
45525;BME280;31437;58.350;13.828;2023-02-04T12:47:37;102612.91;;;-3.05;100.00
45525;BME280;31437;58.350;13.828;2023-02-04T12:50:06;102620.63;;;-3.05;100.00
45525;BME280;31437;58.350;13.828;2023-02-04T12:52:31;102620.53;;;-3.07;100.00
45525;BME280;31437;58.350;13.828;2023-02-04T12:54:56;102617.94;;;-3.08;100.00
45525;BME280;31437;58.350;13.828;2023-02-04T12:57:24;102613.41;;;-3.14;100.00
45525;BME280;31437;58.350;13.828;2023-02-04T12:59:49;102617.59;;;-3.16;100.00
45525;BME280;31437;58.350;13.828;2023-02-04T13:02:14;102615.78;;;-3.18;100.00
45525;BME280;31437;58.350;13.828;2023-02-04T13:04:40;102610.47;;;-3.23;100.00
45525;BME280;31437;58.350;13.828;2023-02-04T13:07:06;102615.50;;;-3.26;100.00
45525;BME280;31437;58.350;13.828;2023-02-04T13:09:33;102612.72;;;-3.31;100.00
45525;BME280;31437;58.350;13.828;2023-02-04T13:11:58;102603.19;;;-3.33;100.00
45525;BME280;31437;58.350;13.828;2023-02-04T13:14:23;102599.69;;;-3.35;100.00
45525;BME280;31437;58.350;13.828;2023-02-04T13:16:49;102601.22;;;-3.40;100.00
45525;BME280;31437;58.350;13.828;2023-02-04T13:19:15;102598.56;;;-3.42;100.00
45525;BME280;31437;58.350;13.828;2023-02-04T13:21:40;102589.88;;;-3.46;100.00
45525;BME280;31437;58.350;13.828;2023-02-04T13:24:05;102600.97;;;-3.47;100.00
45525;BME280;31437;58.350;13.828;2023-02-04T13:26:30;102594.06;;;-3.48;100.00
45525;BME280;31437;58.350;13.828;2023-02-04T13:28:56;102606.72;;;-3.52;100.00
45525;BME280;31437;58.350;13.828;2023-02-04T13:31:21;102603.06;;;-3.57;100.00
45525;BME280;31437;58.350;13.828;2023-02-04T13:36:21;102600.97;;;-3.66;100.00
45525;BME280;31437;58.350;13.828;2023-02-04T13:38:47;102606.84;;;-3.69;100.00
45525;BME280;31437;58.350;13.828;2023-02-04T13:41:14;102603.22;;;-3.74;100.00
45525;BME280;31437;58.350;13.828;2023-02-04T13:43:40;102611.53;;;-3.79;100.00
45525;BME280;31437;58.350;13.828;2023-02-04T13:46:05;102611.25;;;-3.85;100.00
45525;BME280;31437;58.350;13.828;2023-02-04T13:48:31;102611.06;;;-3.90;100.00
45525;BME280;31437;58.350;13.828;2023-02-04T13:50:56;102612.63;;;-3.94;100.00
45525;BME280;31437;58.350;13.828;2023-02-04T13:53:21;102610.72;;;-3.98;100.00
45525;BME280;31437;58.350;13.828;2023-02-04T13:55:49;102608.72;;;-4.05;100.00
45525;BME280;31437;58.350;13.828;2023-02-04T13:58:14;102605.94;;;-4.09;100.00
45525;BME280;31437;58.350;13.828;2023-02-04T14:00:39;102607.34;;;-4.16;100.00
45525;BME280;31437;58.350;13.828;2023-02-04T14:03:05;102608.03;;;-4.20;100.00
45525;BME280;31437;58.350;13.828;2023-02-04T14:05:30;102608.63;;;-4.26;100.00
45525;BME280;31437;58.350;13.828;2023-02-04T14:07:55;102603.28;;;-4.30;100.00
45525;BME280;31437;58.350;13.828;2023-02-04T14:10:22;102601.28;;;-4.38;100.00
45525;BME280;31437;58.350;13.828;2023-02-04T14:12:49;102601.88;;;-4.43;100.00
45525;BME280;31437;58.350;13.828;2023-02-04T14:15:14;102600.84;;;-4.47;100.00
45525;BME280;31437;58.350;13.828;2023-02-04T14:17:41;102607.44;;;-4.52;100.00
45525;BME280;31437;58.350;13.828;2023-02-04T14:20:07;102612.28;;;-4.58;100.00
45525;BME280;31437;58.350;13.828;2023-02-04T14:25:07;102611.78;;;-4.69;100.00
45525;BME280;31437;58.350;13.828;2023-02-04T14:27:34;102603.81;;;-4.75;100.00
45525;BME280;31437;58.350;13.828;2023-02-04T14:29:59;102604.41;;;-4.81;100.00
45525;BME280;31437;58.350;13.828;2023-02-04T14:32:26;102580.41;;;-5.00;100.00
45525;BME280;31437;58.350;13.828;2023-02-04T14:34:51;102600.25;;;-4.96;100.00
45525;BME280;31437;58.350;13.828;2023-02-04T14:37:16;102598.19;;;-5.04;100.00
45525;BME280;31437;58.350;13.828;2023-02-04T14:47:27;102602.72;;;-5.50;100.00
45525;BME280;31437;58.350;13.828;2023-02-04T14:52:27;102614.28;;;-5.75;100.00
45525;BME280;31437;58.350;13.828;2023-02-04T14:54:54;102621.34;;;-5.87;100.00
45525;BME280;31437;58.350;13.828;2023-02-04T14:57:20;102625.84;;;-5.99;100.00
45525;BME280;31437;58.350;13.828;2023-02-04T14:59:45;102629.53;;;-6.10;100.00
45525;BME280;31437;58.350;13.828;2023-02-04T15:02:11;102632.22;;;-6.24;100.00
45525;BME280;31437;58.350;13.828;2023-02-04T15:04:39;102639.22;;;-6.36;100.00
45525;BME280;31437;58.350;13.828;2023-02-04T15:07:04;102639.44;;;-6.48;100.00
45525;BME280;31437;58.350;13.828;2023-02-04T15:09:29;102645.56;;;-6.60;100.00
45525;BME280;31437;58.350;13.828;2023-02-04T15:11:55;102639.69;;;-6.74;100.00
45525;BME280;31437;58.350;13.828;2023-02-04T15:14:21;102646.66;;;-6.87;100.00
45525;BME280;31437;58.350;13.828;2023-02-04T15:16:47;102639.91;;;-7.01;100.00
45525;BME280;31437;58.350;13.828;2023-02-04T15:19:14;102644.22;;;-7.15;100.00
45525;BME280;31437;58.350;13.828;2023-02-04T15:21:40;102654.59;;;-7.26;100.00
45525;BME280;31437;58.350;13.828;2023-02-04T15:24:06;102653.00;;;-7.39;100.00
45525;BME280;31437;58.350;13.828;2023-02-04T15:26:32;102658.44;;;-7.48;100.00
45525;BME280;31437;58.350;13.828;2023-02-04T15:28:57;102651.94;;;-7.58;100.00
45525;BME280;31437;58.350;13.828;2023-02-04T15:31:23;102652.00;;;-7.71;100.00
45525;BME280;31437;58.350;13.828;2023-02-04T15:33:49;102660.69;;;-7.82;100.00
45525;BME280;31437;58.350;13.828;2023-02-04T15:36:14;102659.94;;;-7.94;100.00
45525;BME280;31437;58.350;13.828;2023-02-04T15:38:39;102671.16;;;-8.06;100.00
45525;BME280;31437;58.350;13.828;2023-02-04T15:41:05;102676.56;;;-8.14;100.00
45525;BME280;31437;58.350;13.828;2023-02-04T15:43:30;102670.31;;;-8.19;100.00
45525;BME280;31437;58.350;13.828;2023-02-04T15:45:55;102679.25;;;-8.26;100.00
45525;BME280;31437;58.350;13.828;2023-02-04T15:48:21;102681.97;;;-8.36;100.00
45525;BME280;31437;58.350;13.828;2023-02-04T15:50:48;102687.59;;;-8.42;100.00
45525;BME280;31437;58.350;13.828;2023-02-04T15:53:13;102678.59;;;-8.50;100.00
45525;BME280;31437;58.350;13.828;2023-02-04T15:55:38;102684.00;;;-8.59;100.00
45525;BME280;31437;58.350;13.828;2023-02-04T15:58:04;102685.38;;;-8.64;100.00
45525;BME280;31437;58.350;13.828;2023-02-04T16:00:29;102691.03;;;-8.68;100.00
45525;BME280;31437;58.350;13.828;2023-02-04T16:02:56;102704.16;;;-8.75;100.00
45525;BME280;31437;58.350;13.828;2023-02-04T16:05:21;102706.88;;;-8.85;100.00
45525;BME280;31437;58.350;13.828;2023-02-04T16:07:47;102706.22;;;-8.96;100.00
45525;BME280;31437;58.350;13.828;2023-02-04T16:10:13;102709.03;;;-9.05;100.00
45525;BME280;31437;58.350;13.828;2023-02-04T16:12:39;102699.81;;;-9.16;100.00
45525;BME280;31437;58.350;13.828;2023-02-04T16:15:04;102700.09;;;-9.25;100.00
45525;BME280;31437;58.350;13.828;2023-02-04T16:17:30;102702.53;;;-9.26;100.00
45525;BME280;31437;58.350;13.828;2023-02-04T16:19:55;102707.84;;;-9.23;100.00
45525;BME280;31437;58.350;13.828;2023-02-04T16:22:22;102714.47;;;-9.25;100.00
45525;BME280;31437;58.350;13.828;2023-02-04T16:24:47;102716.88;;;-9.27;100.00
45525;BME280;31437;58.350;13.828;2023-02-04T16:27:13;102718.34;;;-9.30;100.00
45525;BME280;31437;58.350;13.828;2023-02-04T16:29:42;102717.34;;;-9.32;100.00
45525;BME280;31437;58.350;13.828;2023-02-04T16:32:07;102719.81;;;-9.34;100.00
45525;BME280;31437;58.350;13.828;2023-02-04T16:34:32;102729.88;;;-9.35;100.00
45525;BME280;31437;58.350;13.828;2023-02-04T16:36:58;102734.53;;;-9.42;100.00
45525;BME280;31437;58.350;13.828;2023-02-04T16:39:23;102748.13;;;-9.41;100.00
45525;BME280;31437;58.350;13.828;2023-02-04T16:41:49;102749.91;;;-9.40;100.00
45525;BME280;31437;58.350;13.828;2023-02-04T16:44:15;102756.34;;;-9.45;100.00
45525;BME280;31437;58.350;13.828;2023-02-04T16:46:41;102755.03;;;-9.52;100.00